Time;durP1;ratioP1;P1;durP2;ratioP2;P2;SDS_P1;SDS_P2;PMS_P1;PMS_P2;Temp;Humidity;BMP_temperature;BMP_pressure;BME280_temperature;BME280_humidity;BME280_pressure;Samples;Min_cycle;Max_cycle;Signal;HPM_P1;HPM_P2
2021/06/25 00:00:20;;;;;;;48.53;21.47;;;16.80;97.30;;;;;;4899617;29;20920;-90
2021/06/25 00:02:46;;;;;;;43.13;20.63;;;16.80;97.30;;;;;;4899420;29;20352;-90
2021/06/25 00:05:12;;;;;;;43.20;20.80;;;16.80;97.30;;;;;;4898785;29;20583;-90
2021/06/25 00:07:40;;;;;;;39.80;21.13;;;16.80;97.30;;;;;;4918274;29;20955;-90
2021/06/25 00:10:14;;;;;;;40.63;19.67;;;16.80;97.30;;;;;;4918549;29;20228;-90
2021/06/25 00:12:42;;;;;;;34.83;19.87;;;16.80;97.30;;;;;;4918834;29;20458;-90
2021/06/25 00:15:09;;;;;;;37.63;19.10;;;16.80;97.30;;;;;;4919250;29;20503;-90
2021/06/25 00:17:34;;;;;;;37.10;20.63;;;16.70;97.30;;;;;;4919484;29;20424;-89
2021/06/25 00:20:00;;;;;;;32.80;19.40;;;16.70;97.30;;;;;;4919019;29;20479;-90
2021/06/25 00:22:26;;;;;;;40.53;20.30;;;16.70;97.30;;;;;;4919620;29;20691;-90
2021/06/25 00:24:54;;;;;;;32.50;19.63;;;16.70;97.30;;;;;;4919364;29;20180;-90
2021/06/25 00:27:22;;;;;;;33.07;19.20;;;16.70;97.30;;;;;;4919680;29;20420;-90
2021/06/25 00:29:53;;;;;;;38.30;20.63;;;16.70;97.30;;;;;;4935429;29;20442;-90
2021/06/25 00:32:21;;;;;;;38.87;20.40;;;16.70;97.30;;;;;;4918053;29;20451;-90
2021/06/25 00:34:49;;;;;;;35.77;18.57;;;16.70;97.30;;;;;;4918126;29;20424;-90
2021/06/25 00:37:14;;;;;;;36.60;18.63;;;16.70;97.30;;;;;;4917747;29;20423;-90
2021/06/25 00:39:40;;;;;;;34.70;19.20;;;16.70;97.30;;;;;;4920155;29;20439;-90
2021/06/25 00:42:09;;;;;;;31.40;18.07;;;16.70;97.30;;;;;;4920697;29;20180;-90
2021/06/25 00:44:41;;;;;;;30.13;18.77;;;16.60;97.30;;;;;;4921491;29;20190;-90
2021/06/25 00:47:08;;;;;;;39.73;18.90;;;16.60;97.30;;;;;;4920748;29;21045;-90
2021/06/25 00:49:34;;;;;;;37.97;19.33;;;16.60;97.30;;;;;;4920635;29;20439;-91
2021/06/25 00:52:03;;;;;;;41.40;21.37;;;16.60;97.30;;;;;;4920912;29;20419;-90
2021/06/25 00:54:29;;;;;;;33.80;19.67;;;16.60;97.30;;;;;;4921659;29;20431;-90
2021/06/25 00:56:55;;;;;;;37.57;20.07;;;16.60;97.30;;;;;;4938950;29;20415;-90
2021/06/25 00:59:20;;;;;;;43.90;21.00;;;16.60;97.30;;;;;;4921348;29;20196;-90
2021/06/25 01:01:46;;;;;;;40.83;21.47;;;16.60;97.30;;;;;;4938837;29;20470;-90
2021/06/25 01:04:15;;;;;;;41.73;20.83;;;16.60;97.30;;;;;;4921642;29;20220;-90
2021/06/25 01:06:40;;;;;;;70.00;19.90;;;16.60;97.30;;;;;;4922029;29;20551;-90
2021/06/25 01:09:10;;;;;;;39.57;20.53;;;16.60;97.30;;;;;;4939151;29;20446;-90
2021/06/25 01:11:44;;;;;;;38.13;19.83;;;16.60;97.30;;;;;;4922320;29;20471;-90
2021/06/25 01:14:09;;;;;;;37.87;20.50;;;16.60;97.30;;;;;;4922771;29;20423;-90
2021/06/25 01:16:35;;;;;;;37.20;19.93;;;16.60;97.30;;;;;;4922864;29;20439;-90
2021/06/25 01:19:00;;;;;;;33.53;20.00;;;16.60;97.30;;;;;;4922163;29;20235;-90
2021/06/25 01:21:26;;;;;;;33.13;19.97;;;16.60;97.30;;;;;;4922276;29;20196;-91
2021/06/25 01:23:51;;;;;;;35.63;19.77;;;16.60;97.30;;;;;;4922211;29;20211;-90
2021/06/25 01:26:19;;;;;;;38.10;19.13;;;16.60;97.30;;;;;;4920545;29;20635;-89
2021/06/25 01:28:46;;;;;;;32.67;19.60;;;16.60;97.30;;;;;;4918719;29;20701;-91
2021/06/25 01:31:11;;;;;;;40.17;21.33;;;16.60;97.30;;;;;;4918699;29;20502;-90
2021/06/25 01:33:37;;;;;;;35.43;20.67;;;16.60;97.30;;;;;;4918978;29;20510;-90
2021/06/25 01:36:03;;;;;;;39.67;21.13;;;16.60;97.30;;;;;;4918721;29;20195;-91
2021/06/25 01:38:33;;;;;;;44.77;23.17;;;16.60;97.30;;;;;;4918356;29;20215;-91
2021/06/25 01:41:01;;;;;;;39.70;22.50;;;16.60;97.30;;;;;;4935516;29;20415;-89
2021/06/25 01:43:30;;;;;;;45.77;22.50;;;16.60;97.30;;;;;;4918884;29;20462;-90
2021/06/25 01:45:56;;;;;;;39.47;21.97;;;16.60;97.30;;;;;;4919993;29;20423;-91
2021/06/25 01:48:23;;;;;;;40.47;21.33;;;16.60;97.30;;;;;;4920675;29;20663;-90
2021/06/25 01:50:49;;;;;;;42.77;20.33;;;16.60;97.30;;;;;;4937103;29;20426;-90
2021/06/25 01:53:16;;;;;;;42.50;20.97;;;16.50;97.30;;;;;;4921083;29;20423;-90
2021/06/25 01:55:44;;;;;;;34.23;18.93;;;16.50;97.30;;;;;;4920532;29;20579;-91
2021/06/25 01:58:15;;;;;;;35.03;20.27;;;16.50;97.30;;;;;;4921207;29;20447;-90
2021/06/25 02:00:43;;;;;;;38.80;20.93;;;16.50;97.30;;;;;;4921632;29;20918;-90
2021/06/25 02:03:09;;;;;;;36.63;19.40;;;16.50;97.30;;;;;;4922095;29;20467;-90
2021/06/25 02:05:34;;;;;;;50.93;22.87;;;16.50;97.30;;;;;;4918719;29;20527;-90
2021/06/25 02:08:00;;;;;;;43.77;22.13;;;16.50;97.30;;;;;;4903202;29;20263;-90
2021/06/25 02:10:26;;;;;;;38.17;19.80;;;16.50;97.30;;;;;;4919877;29;20184;-90
2021/06/25 02:12:53;;;;;;;40.17;20.33;;;16.50;97.30;;;;;;4919621;29;20231;-90
2021/06/25 02:15:19;;;;;;;40.60;20.67;;;16.50;97.30;;;;;;4901638;29;20188;-90
2021/06/25 02:17:44;;;;;;;36.03;20.70;;;16.50;97.30;;;;;;4900109;29;20420;-90
2021/06/25 02:20:11;;;;;;;45.60;21.77;;;16.40;97.30;;;;;;4917330;29;20224;-90
2021/06/25 02:22:37;;;;;;;42.90;20.93;;;16.40;97.30;;;;;;4900303;29;20250;-90
2021/06/25 02:25:09;;;;;;;42.47;22.63;;;16.40;97.30;;;;;;4900520;29;20499;-90
2021/06/25 02:27:34;;;;;;;40.73;21.40;;;16.40;97.30;;;;;;4900442;29;20428;-91
2021/06/25 02:30:00;;;;;;;39.33;21.70;;;16.40;97.30;;;;;;4900802;29;20853;-90
2021/06/25 02:32:26;;;;;;;40.50;21.57;;;16.40;97.30;;;;;;4917101;29;20186;-90
2021/06/25 02:34:51;;;;;;;34.80;19.80;;;16.40;97.30;;;;;;4901000;29;20200;-90
2021/06/25 02:37:17;;;;;;;35.40;19.43;;;16.40;97.30;;;;;;4901097;29;20509;-92
2021/06/25 02:39:42;;;;;;;39.67;22.50;;;16.30;97.30;;;;;;4901354;29;20216;-90
2021/06/25 02:42:10;;;;;;;41.07;20.80;;;16.30;97.30;;;;;;4901495;29;20184;-90
2021/06/25 02:44:36;;;;;;;48.80;21.83;;;16.30;97.30;;;;;;4900989;29;20181;-90
2021/06/25 02:47:01;;;;;;;45.40;22.00;;;16.30;97.30;;;;;;4901389;29;20658;-91
2021/06/25 02:49:32;;;;;;;62.67;24.43;;;16.30;97.30;;;;;;4918691;29;20196;-90
2021/06/25 02:52:00;;;;;;;41.40;21.70;;;16.30;97.30;;;;;;4901801;29;20232;-90
2021/06/25 02:54:25;;;;;;;44.43;20.80;;;16.30;97.30;;;;;;4901752;29;20432;-90
2021/06/25 02:56:51;;;;;;;50.77;22.07;;;16.30;97.30;;;;;;4900777;29;20443;-90
2021/06/25 02:59:16;;;;;;;41.90;20.87;;;16.30;97.30;;;;;;4917029;29;20232;-90
2021/06/25 03:01:42;;;;;;;40.50;21.03;;;16.30;97.30;;;;;;4898770;29;20216;-90
2021/06/25 03:04:07;;;;;;;41.10;21.53;;;16.30;97.30;;;;;;4898963;29;20212;-91
2021/06/25 03:06:33;;;;;;;42.37;22.83;;;16.30;97.30;;;;;;4925458;29;20176;-91
2021/06/25 03:08:58;;;;;;;39.93;21.33;;;16.30;97.30;;;;;;4917099;29;20192;-90
2021/06/25 03:11:24;;;;;;;47.40;21.87;;;16.20;97.30;;;;;;4917396;29;20180;-89
2021/06/25 03:13:49;;;;;;;45.73;22.20;;;16.20;97.30;;;;;;4917608;29;20184;-90
2021/06/25 03:16:16;;;;;;;44.50;23.13;;;16.20;97.30;;;;;;4934164;29;20186;-91
2021/06/25 03:18:42;;;;;;;43.23;22.20;;;16.20;97.30;;;;;;4916105;29;20239;-90
2021/06/25 03:21:09;;;;;;;46.13;21.90;;;16.20;97.30;;;;;;4916624;29;20431;-90
2021/06/25 03:23:35;;;;;;;45.10;23.63;;;16.20;97.30;;;;;;4917433;29;20274;-90
2021/06/25 03:26:00;;;;;;;48.07;24.00;;;16.20;97.30;;;;;;4917656;29;20552;-90
2021/06/25 03:28:26;;;;;;;47.60;22.57;;;16.20;97.30;;;;;;4917299;29;20196;-90
2021/06/25 03:30:54;;;;;;;41.87;22.97;;;16.20;97.30;;;;;;4917581;29;20200;-90
2021/06/25 03:33:22;;;;;;;57.27;23.57;;;16.20;97.30;;;;;;4934985;29;20184;-90
2021/06/25 03:35:52;;;;;;;45.57;23.40;;;16.30;97.30;;;;;;4936576;29;20575;-90
2021/06/25 03:38:18;;;;;;;51.27;24.77;;;16.30;97.30;;;;;;4937032;29;20463;-90
2021/06/25 03:40:44;;;;;;;50.80;24.90;;;16.30;97.30;;;;;;4920262;29;20430;-90
2021/06/25 03:43:09;;;;;;;54.37;23.83;;;16.30;97.30;;;;;;4919762;29;20997;-90
2021/06/25 03:45:52;;;;;;;48.67;24.53;;;16.20;97.30;;;;;;4920464;29;20658;-90
2021/06/25 03:48:20;;;;;;;45.93;24.37;;;16.20;97.30;;;;;;4920506;29;20191;-90
2021/06/25 03:50:45;;;;;;;53.93;24.53;;;16.20;97.30;;;;;;4920243;29;20418;-90
2021/06/25 03:53:11;;;;;;;47.50;25.30;;;16.20;97.30;;;;;;4936614;29;20420;-90
2021/06/25 03:56:09;;;;;;;52.63;25.33;;;16.20;97.30;;;;;;4919639;29;20239;-91
2021/06/25 03:58:22;;;;;;;47.47;24.23;;;16.20;97.30;;;;;;4936937;29;20208;-89
2021/06/25 04:00:47;;;;;;;53.50;24.97;;;16.20;97.30;;;;;;4920145;29;21018;-90
2021/06/25 04:03:13;;;;;;;49.40;25.30;;;16.20;97.30;;;;;;4923019;29;20211;-90
2021/06/25 04:05:39;;;;;;;54.50;25.57;;;16.20;97.30;;;;;;4936847;29;20184;-90
2021/06/25 04:08:04;;;;;;;51.07;25.93;;;16.20;97.30;;;;;;4898537;29;20342;-91
2021/06/25 04:10:29;;;;;;;46.93;23.97;;;16.20;97.30;;;;;;4899548;29;20168;-90
2021/06/25 04:12:55;;;;;;;53.80;27.83;;;16.20;97.30;;;;;;4899127;29;20669;-90
2021/06/25 04:15:23;;;;;;;54.87;25.60;;;16.30;97.30;;;;;;4899539;29;20774;-90
2021/06/25 04:17:48;;;;;;;47.00;25.87;;;16.30;97.30;;;;;;4899194;29;20212;-90
2021/06/25 04:20:15;;;;;;;59.13;28.27;;;16.40;97.30;;;;;;4899227;29;20507;-90
2021/06/25 04:22:43;;;;;;;62.23;28.50;;;16.40;97.30;;;;;;4899171;29;20197;-90
2021/06/25 04:25:09;;;;;;;58.27;28.00;;;16.40;97.30;;;;;;4899487;29;20496;-90
2021/06/25 04:27:35;;;;;;;54.03;27.60;;;16.50;97.30;;;;;;4917151;29;20409;-90
2021/06/25 04:30:01;;;;;;;52.33;27.07;;;16.50;97.30;;;;;;4900586;29;20440;-90
2021/06/25 04:32:28;;;;;;;60.20;27.10;;;16.50;97.30;;;;;;4900197;29;20180;-90
2021/06/25 04:34:54;;;;;;;58.77;25.57;;;16.50;97.30;;;;;;4900602;29;20179;-91
2021/06/25 04:37:19;;;;;;;53.50;26.00;;;16.50;97.30;;;;;;4900258;29;20416;-90
2021/06/25 04:39:45;;;;;;;47.50;23.90;;;16.50;97.30;;;;;;4900609;29;20683;-90
2021/06/25 04:42:12;;;;;;;52.77;26.63;;;16.50;97.30;;;;;;4899758;29;20268;-90
2021/06/25 04:44:39;;;;;;;51.50;26.60;;;16.50;97.30;;;;;;4898157;29;20179;-90
2021/06/25 04:47:05;;;;;;;61.20;26.10;;;16.50;97.30;;;;;;4898198;29;20939;-90
2021/06/25 04:49:31;;;;;;;50.07;26.20;;;16.50;97.30;;;;;;4915017;29;20437;-90
2021/06/25 04:52:05;;;;;;;55.37;26.70;;;16.50;97.30;;;;;;4915018;29;20499;-90
2021/06/25 04:54:30;;;;;;;50.87;25.13;;;16.40;97.30;;;;;;4903449;29;20499;-90
2021/06/25 04:56:56;;;;;;;58.37;27.53;;;16.40;97.30;;;;;;4905842;29;20822;-90
2021/06/25 04:59:24;;;;;;;52.57;27.63;;;16.40;97.30;;;;;;4909079;29;20428;-90
2021/06/25 05:01:50;;;;;;;57.17;26.67;;;16.50;97.30;;;;;;4904312;29;20177;-90
2021/06/25 05:04:15;;;;;;;48.70;26.70;;;16.50;97.30;;;;;;4921784;29;21041;-89
2021/06/25 05:06:41;;;;;;;61.17;30.20;;;16.50;97.30;;;;;;4910167;29;20966;-90
2021/06/25 05:09:06;;;;;;;57.93;28.80;;;16.60;97.30;;;;;;4905211;29;20196;-90
2021/06/25 05:11:32;;;;;;;55.70;27.70;;;16.60;97.30;;;;;;4923757;29;20236;-90
2021/06/25 05:13:57;;;;;;;54.73;26.57;;;16.60;97.30;;;;;;4923840;29;20609;-91
2021/06/25 05:16:23;;;;;;;50.23;27.43;;;16.70;97.30;;;;;;4928981;29;20235;-88
2021/06/25 05:18:51;;;;;;;49.50;26.97;;;16.70;97.30;;;;;;4906017;29;20295;-89
2021/06/25 05:21:17;;;;;;;57.90;27.50;;;16.70;97.30;;;;;;4911745;29;20194;-89
2021/06/25 05:23:43;;;;;;;53.60;27.00;;;16.70;97.30;;;;;;4926564;29;20513;-88
2021/06/25 05:26:19;;;;;;;56.97;26.30;;;16.70;97.30;;;;;;4917741;29;20434;-91
2021/06/25 05:28:44;;;;;;;49.00;25.80;;;16.80;97.30;;;;;;4915850;29;20203;-91
2021/06/25 05:31:10;;;;;;;52.87;27.33;;;16.80;97.30;;;;;;4913422;29;21042;-90
2021/06/25 05:33:36;;;;;;;54.80;27.07;;;16.80;97.30;;;;;;4918405;29;20214;-90
2021/06/25 05:36:04;;;;;;;48.43;25.87;;;16.80;97.30;;;;;;4920204;29;20164;-91
2021/06/25 05:38:32;;;;;;;53.17;26.13;;;16.80;97.30;;;;;;4916317;29;20211;-92
2021/06/25 05:41:04;;;;;;;56.80;28.33;;;16.90;97.30;;;;;;4916429;29;20449;-90
2021/06/25 05:43:32;;;;;;;56.83;26.47;;;16.90;97.30;;;;;;4906601;29;20451;-90
2021/06/25 05:46:13;;;;;;;48.50;25.60;;;16.90;97.30;;;;;;4918858;29;20482;-90
2021/06/25 05:49:03;;;;;;;56.57;27.33;;;16.90;97.30;;;;;;4918516;29;20986;-90
2021/06/25 05:51:32;;;;;;;52.60;26.97;;;16.90;97.30;;;;;;4896984;29;20439;-90
2021/06/25 05:54:05;;;;;;;52.13;26.67;;;17.00;97.30;;;;;;4916732;29;20512;-90
2021/06/25 05:56:34;;;;;;;55.23;26.53;;;17.00;97.30;;;;;;4927139;29;20500;-90
2021/06/25 05:59:03;;;;;;;55.20;26.47;;;17.10;97.30;;;;;;4913005;29;20451;-90
2021/06/25 06:01:36;;;;;;;52.63;26.97;;;17.10;97.30;;;;;;4910824;29;20432;-91
2021/06/25 06:04:04;;;;;;;51.57;25.90;;;17.10;97.30;;;;;;4906263;29;20531;-90
2021/06/25 06:06:33;;;;;;;43.17;24.50;;;17.20;97.30;;;;;;4919637;29;20531;-90
2021/06/25 06:09:06;;;;;;;47.33;23.33;;;17.20;97.30;;;;;;4927684;29;20431;-90
2021/06/25 06:11:34;;;;;;;52.03;24.87;;;17.20;97.30;;;;;;4923960;29;20412;-93
2021/06/25 06:14:11;;;;;;;49.33;25.10;;;17.20;97.30;;;;;;4925212;29;20399;-90
2021/06/25 06:16:46;;;;;;;50.43;25.50;;;17.20;97.30;;;;;;4917604;29;20440;-91
2021/06/25 06:19:16;;;;;;;51.40;25.93;;;17.30;97.30;;;;;;4905566;29;20475;-91
2021/06/25 06:32:49;;;;;;;49.87;24.03;;;17.60;97.30;;;;;;4902625;29;20457;-92
2021/06/25 06:35:14;;;;;;;47.77;23.33;;;17.70;97.30;;;;;;4891729;29;20448;-91
2021/06/25 06:37:49;;;;;;;54.30;22.80;;;17.80;97.30;;;;;;4892427;29;20526;-90
2021/06/25 06:40:19;;;;;;;41.67;22.43;;;17.80;97.30;;;;;;4883755;29;20180;-89
2021/06/25 06:42:44;;;;;;;38.50;20.23;;;17.90;97.30;;;;;;4887184;29;20458;-91
2021/06/25 06:45:11;;;;;;;41.07;21.60;;;18.00;97.30;;;;;;4884552;29;20414;-91
2021/06/25 06:47:36;;;;;;;34.70;19.37;;;18.10;97.30;;;;;;4884265;29;20567;-91
2021/06/25 06:50:04;;;;;;;38.20;20.67;;;18.20;97.30;;;;;;4901540;29;20464;-91
2021/06/25 06:52:30;;;;;;;32.37;17.40;;;18.20;97.30;;;;;;4890666;29;20386;-91
2021/06/25 06:54:55;;;;;;;26.53;14.80;;;18.20;97.30;;;;;;4920342;29;20471;-91
2021/06/25 06:57:21;;;;;;;23.60;14.60;;;18.20;97.30;;;;;;4897776;29;20248;-90
2021/06/25 06:59:49;;;;;;;23.70;12.33;;;18.20;97.30;;;;;;4901650;29;20201;-91
2021/06/25 07:02:14;;;;;;;25.80;13.60;;;18.30;97.30;;;;;;4885163;29;20180;-91
2021/06/25 07:04:42;;;;;;;26.60;13.07;;;18.30;97.30;;;;;;4884948;29;20540;-91
2021/06/25 07:07:10;;;;;;;21.37;11.87;;;18.30;97.30;;;;;;4914297;29;20213;-90
2021/06/25 07:09:35;;;;;;;18.37;12.03;;;18.30;97.30;;;;;;4922295;29;20443;-90
2021/06/25 07:12:03;;;;;;;24.00;11.50;;;18.30;97.30;;;;;;4914903;29;20448;-90
2021/06/25 07:14:36;;;;;;;24.67;12.67;;;18.30;97.30;;;;;;4883075;29;20181;-91
2021/06/25 07:17:04;;;;;;;18.47;12.83;;;18.30;97.30;;;;;;4882222;29;20420;-90
2021/06/25 07:19:34;;;;;;;20.00;13.23;;;18.30;97.30;;;;;;4882705;29;21088;-91
2021/06/25 07:22:02;;;;;;;27.37;15.60;;;18.30;97.30;;;;;;4882737;29;20429;-90
2021/06/25 07:24:30;;;;;;;21.83;14.40;;;18.30;97.30;;;;;;4882851;29;20461;-90
2021/06/25 07:26:55;;;;;;;24.00;14.03;;;18.40;97.30;;;;;;4883302;29;20695;-91
2021/06/25 07:29:21;;;;;;;25.60;15.10;;;18.50;97.30;;;;;;4901821;29;20436;-91
2021/06/25 07:31:47;;;;;;;26.80;15.90;;;18.50;97.30;;;;;;4902513;29;20176;-90
2021/06/25 07:34:12;;;;;;;24.20;14.87;;;18.60;97.30;;;;;;4902827;29;20258;-91
2021/06/25 07:36:43;;;;;;;27.73;15.40;;;18.60;97.30;;;;;;4903166;29;20251;-91
2021/06/25 07:39:10;;;;;;;27.03;14.73;;;18.70;97.30;;;;;;4901633;29;20204;-91
2021/06/25 07:41:36;;;;;;;35.03;15.70;;;18.70;97.30;;;;;;4902311;29;20429;-90
2021/06/25 07:44:02;;;;;;;28.93;14.00;;;18.80;97.30;;;;;;4885530;29;20465;-90
2021/06/25 07:46:33;;;;;;;26.70;14.60;;;18.80;97.30;;;;;;4884755;29;20430;-91
2021/06/25 07:49:03;;;;;;;26.03;14.63;;;18.80;97.30;;;;;;4882901;29;20488;-90
2021/06/25 07:51:34;;;;;;;27.10;14.07;;;18.90;97.30;;;;;;4884147;29;20417;-90
2021/06/25 07:54:17;;;;;;;19.93;13.60;;;18.90;97.30;;;;;;4883518;29;20512;-90
2021/06/25 07:56:42;;;;;;;24.27;14.40;;;18.90;97.30;;;;;;4884477;29;20657;-90
2021/06/25 07:59:13;;;;;;;22.20;14.20;;;18.90;97.30;;;;;;4883138;29;20449;-90
2021/06/25 08:01:38;;;;;;;26.97;14.60;;;19.00;97.30;;;;;;4882054;29;20177;-90
2021/06/25 08:04:04;;;;;;;24.47;14.20;;;19.00;97.30;;;;;;4881488;29;20477;-90
2021/06/25 08:06:32;;;;;;;26.90;15.07;;;19.00;97.30;;;;;;4897497;29;20184;-90
2021/06/25 08:09:03;;;;;;;25.73;13.97;;;19.10;97.30;;;;;;4882522;29;20695;-90
2021/06/25 08:11:33;;;;;;;23.57;14.60;;;19.20;97.30;;;;;;4880805;29;20933;-90
2021/06/25 08:13:59;;;;;;;25.23;13.37;;;19.30;97.30;;;;;;4880245;29;20476;-90
2021/06/25 08:16:25;;;;;;;22.17;14.43;;;19.40;97.30;;;;;;4880263;29;20425;-90
2021/06/25 08:18:57;;;;;;;20.77;14.07;;;19.60;97.30;;;;;;4880389;29;20803;-89
2021/06/25 08:21:27;;;;;;;41.17;16.90;;;19.80;97.30;;;;;;4881286;29;20675;-90
2021/06/25 08:23:54;;;;;;;29.03;15.10;;;19.90;97.30;;;;;;4881478;29;20465;-90
2021/06/25 08:26:20;;;;;;;20.87;13.10;;;20.00;97.30;;;;;;4880729;29;20463;-90
2021/06/25 08:28:46;;;;;;;36.13;15.03;;;20.10;97.30;;;;;;4895299;29;20491;-90
2021/06/25 08:31:14;;;;;;;22.90;14.97;;;20.20;97.30;;;;;;4899203;29;20185;-90
2021/06/25 08:33:43;;;;;;;29.23;15.70;;;20.30;97.30;;;;;;4899774;29;20180;-89
2021/06/25 08:36:16;;;;;;;24.43;14.00;;;20.40;97.30;;;;;;4900596;29;20425;-90
2021/06/25 08:38:42;;;;;;;26.13;13.73;;;20.50;97.30;;;;;;4900864;29;20468;-90
2021/06/25 08:41:12;;;;;;;30.03;15.07;;;20.50;97.30;;;;;;4900180;29;20431;-90
2021/06/25 08:43:37;;;;;;;22.30;15.03;;;20.50;97.30;;;;;;4897089;29;20343;-90
2021/06/25 08:46:03;;;;;;;24.83;16.00;;;20.40;97.30;;;;;;4899397;29;20414;-90
2021/06/25 08:48:36;;;;;;;28.53;15.33;;;20.30;97.30;;;;;;4881811;29;20204;-90
2021/06/25 08:51:03;;;;;;;23.93;15.87;;;20.20;97.30;;;;;;4890171;29;20493;-90
2021/06/25 08:53:31;;;;;;;29.67;17.50;;;20.10;97.30;;;;;;4898502;29;20936;-89
2021/06/25 08:56:00;;;;;;;25.50;15.17;;;20.00;97.30;;;;;;4880210;29;20441;-89
2021/06/25 08:58:25;;;;;;;23.63;17.23;;;19.90;97.30;;;;;;4879363;29;20459;-89
2021/06/25 09:00:53;;;;;;;28.73;16.60;;;19.80;97.30;;;;;;4883809;29;20418;-89
2021/06/25 09:03:23;;;;;;;28.13;17.33;;;19.90;97.30;;;;;;4884639;29;20205;-89
2021/06/25 09:05:52;;;;;;;23.23;14.07;;;19.90;97.30;;;;;;4909895;29;20445;-89
2021/06/25 09:08:31;;;;;;;25.07;15.00;;;19.80;97.30;;;;;;4920731;29;20451;-89
2021/06/25 09:10:59;;;;;;;27.43;15.30;;;19.80;97.30;;;;;;4885450;29;20486;-88
2021/06/25 09:13:36;;;;;;;28.63;15.77;;;19.90;97.30;;;;;;4884396;29;20425;-89
2021/06/25 09:16:24;;;;;;;30.00;15.63;;;19.90;97.30;;;;;;4899840;29;20496;-89
2021/06/25 09:19:01;;;;;;;29.80;17.47;;;19.90;97.30;;;;;;4902649;29;20494;-88
2021/06/25 09:21:36;;;;;;;28.30;18.43;;;19.90;97.30;;;;;;4904464;29;20613;-90
2021/06/25 09:24:22;;;;;;;31.57;18.93;;;19.90;97.30;;;;;;4887687;29;20500;-89
2021/06/25 09:26:49;;;;;;;30.53;18.67;;;19.90;97.30;;;;;;4890866;29;20429;-90
2021/06/25 09:29:22;;;;;;;33.97;19.17;;;19.90;97.30;;;;;;4886023;29;20444;-89
2021/06/25 09:32:08;;;;;;;30.80;17.07;;;19.90;97.30;;;;;;4885598;29;20778;-91
2021/06/25 09:34:42;;;;;;;28.13;16.50;;;20.00;97.30;;;;;;4885118;29;20484;-89
2021/06/25 09:37:15;;;;;;;28.93;15.17;;;20.00;97.30;;;;;;4885788;29;20527;-90
2021/06/25 09:40:00;;;;;;;21.83;14.57;;;20.00;97.30;;;;;;4897554;29;20501;-91
2021/06/25 09:42:26;;;;;;;27.30;15.70;;;20.00;97.30;;;;;;4885062;29;20503;-90
2021/06/25 09:45:09;;;;;;;29.13;17.97;;;20.00;97.30;;;;;;4890391;29;20959;-90
2021/06/25 09:47:41;;;;;;;28.23;17.27;;;20.00;97.30;;;;;;4902144;29;20234;-90
2021/06/25 09:50:15;;;;;;;23.70;16.13;;;20.00;97.30;;;;;;4897991;29;20449;-90
2021/06/25 09:52:52;;;;;;;37.90;18.40;;;19.90;97.30;;;;;;4883924;29;20835;-90
2021/06/25 09:55:28;;;;;;;23.97;15.77;;;20.00;97.30;;;;;;4883965;29;20950;-90
2021/06/25 10:03:36;;;;;;;33.23;18.10;;;20.00;97.30;;;;;;4916593;29;20610;-89
2021/06/25 10:06:13;;;;;;;27.20;16.50;;;20.10;97.30;;;;;;4912140;29;20428;-89
2021/06/25 10:08:46;;;;;;;34.73;17.23;;;20.10;97.30;;;;;;4944821;29;20510;-93
2021/06/25 10:11:13;;;;;;;31.23;17.37;;;20.10;97.30;;;;;;4925326;29;20990;-90
2021/06/25 10:13:44;;;;;;;28.17;15.87;;;20.10;97.30;;;;;;4920198;29;20432;-87
2021/06/25 10:16:11;;;;;;;31.60;18.23;;;20.10;97.30;;;;;;4911821;29;20425;-90
2021/06/25 10:18:42;;;;;;;34.13;20.13;;;20.10;97.30;;;;;;4911681;29;20507;-90
2021/06/25 10:21:24;;;;;;;38.87;22.17;;;20.10;97.30;;;;;;4915463;29;20427;-92
2021/06/25 10:23:55;;;;;;;31.83;20.87;;;20.10;97.30;;;;;;4916288;29;20471;-90
2021/06/25 10:26:24;;;;;;;34.10;21.13;;;20.00;97.30;;;;;;4913745;29;20428;-90
2021/06/25 10:28:54;;;;;;;37.53;21.17;;;20.00;97.30;;;;;;4914645;29;20448;-92
2021/06/25 10:31:24;;;;;;;42.27;21.50;;;20.00;97.30;;;;;;4911075;29;20500;-90
2021/06/25 10:33:52;;;;;;;33.40;21.20;;;20.00;97.30;;;;;;4921762;29;20435;-90
2021/06/25 10:36:26;;;;;;;34.20;19.87;;;20.00;97.30;;;;;;4922903;29;20426;-90
2021/06/25 10:38:53;;;;;;;34.13;20.47;;;19.90;97.30;;;;;;4916976;29;20895;-90
2021/06/25 10:41:24;;;;;;;28.57;19.20;;;19.90;97.30;;;;;;4930343;29;20452;-90
2021/06/25 10:43:54;;;;;;;34.33;17.33;;;19.90;97.30;;;;;;4903761;29;20456;-90
2021/06/25 10:46:25;;;;;;;36.23;19.77;;;19.90;97.30;;;;;;4903725;29;20425;-90
2021/06/25 10:48:56;;;;;;;29.40;18.70;;;19.90;97.30;;;;;;4923970;29;20504;-92
2021/06/25 10:51:35;;;;;;;33.43;19.87;;;19.90;97.30;;;;;;4915224;29;20994;-91
2021/06/25 10:54:15;;;;;;;31.03;18.87;;;20.00;97.30;;;;;;4921197;29;20413;-89
2021/06/25 10:56:54;;;;;;;30.53;17.60;;;20.00;97.30;;;;;;4914447;29;20504;-91
2021/06/25 10:59:28;;;;;;;31.37;17.87;;;20.10;97.30;;;;;;4885433;29;20993;-90
2021/06/25 11:02:06;;;;;;;29.63;18.80;;;20.20;97.30;;;;;;4901515;29;20982;-89
2021/06/25 11:04:43;;;;;;;30.47;18.43;;;20.20;97.30;;;;;;4899488;29;20839;-92
2021/06/25 11:07:17;;;;;;;29.80;16.90;;;20.30;97.30;;;;;;4886897;29;20429;-91
2021/06/25 11:10:04;;;;;;;28.63;16.47;;;20.30;97.30;;;;;;4906179;29;20484;-90
2021/06/25 11:12:51;;;;;;;27.17;17.00;;;20.40;97.30;;;;;;4883727;29;20417;-91
2021/06/25 11:15:34;;;;;;;26.23;16.37;;;20.40;97.30;;;;;;4883786;29;20432;-90
2021/06/25 11:18:24;;;;;;;29.50;16.07;;;20.40;97.30;;;;;;4877885;23;20437;-87
2021/06/25 11:21:15;;;;;;;24.10;15.90;;;20.40;97.30;;;;;;4895909;29;20534;-86
2021/06/25 11:23:46;;;;;;;22.67;14.50;;;20.50;97.30;;;;;;4901243;29;20484;-85
2021/06/25 11:26:15;;;;;;;23.97;15.40;;;20.50;97.30;;;;;;4901672;29;20869;-85
2021/06/25 11:28:45;;;;;;;28.80;15.90;;;20.50;97.30;;;;;;4902639;29;21025;-85
2021/06/25 11:31:15;;;;;;;24.43;15.80;;;20.60;97.30;;;;;;4901307;29;20497;-85
2021/06/25 11:33:56;;;;;;;24.33;15.00;;;20.70;97.30;;;;;;4901986;29;20421;-85
2021/06/25 11:36:31;;;;;;;26.40;13.70;;;20.80;97.30;;;;;;4903831;29;20509;-84
2021/06/25 11:39:22;;;;;;;25.83;15.07;;;20.80;97.30;;;;;;4920794;29;20423;-85
2021/06/25 11:41:54;;;;;;;25.90;15.80;;;20.90;97.30;;;;;;4920927;29;20447;-85
2021/06/25 11:44:58;;;;;;;28.60;16.27;;;20.90;97.30;;;;;;4920993;29;20459;-85
2021/06/25 11:47:30;;;;;;;28.43;15.60;;;21.00;97.30;;;;;;4920202;29;20427;-87
2021/06/25 11:50:03;;;;;;;22.43;14.83;;;21.10;97.30;;;;;;4920141;29;20426;-87
2021/06/25 11:52:32;;;;;;;24.30;14.50;;;21.10;97.30;;;;;;4919943;29;20459;-87
2021/06/25 11:55:02;;;;;;;21.73;12.57;;;21.10;97.30;;;;;;4919787;29;20908;-85
2021/06/25 11:57:34;;;;;;;21.47;12.40;;;21.10;97.30;;;;;;4909504;29;20457;-86
2021/06/25 12:00:06;;;;;;;19.00;11.30;;;21.20;97.30;;;;;;4882597;29;20416;-86
2021/06/25 12:02:42;;;;;;;21.27;12.50;;;21.30;97.30;;;;;;4898259;29;20449;-88
2021/06/25 12:05:10;;;;;;;19.63;10.83;;;21.40;97.30;;;;;;4898639;29;20840;-91
2021/06/25 12:07:36;;;;;;;16.33;10.30;;;21.60;97.30;;;;;;4884038;29;20410;-90
2021/06/25 12:10:03;;;;;;;19.70;10.80;;;21.70;97.30;;;;;;4884310;29;20422;-91
2021/06/25 12:12:32;;;;;;;17.70;11.07;;;22.00;97.30;;;;;;4883586;29;20192;-92
2021/06/25 12:15:03;;;;;;;15.73;9.80;;;22.00;97.30;;;;;;4885387;29;20465;-90
2021/06/25 12:17:46;;;;;;;14.80;9.40;;;22.10;97.30;;;;;;4919623;29;20512;-92
2021/06/25 12:21:07;;;;;;;13.03;8.80;;;22.00;97.30;;;;;;4909797;29;20474;-90
2021/06/25 12:23:42;;;;;;;13.77;9.80;;;22.10;97.30;;;;;;4906682;29;20469;-92
2021/06/25 12:26:22;;;;;;;23.77;11.10;;;22.20;97.30;;;;;;4904476;29;20416;-91
2021/06/25 12:28:57;;;;;;;16.80;11.23;;;22.20;97.30;;;;;;4905781;29;20417;-91
2021/06/25 12:31:28;;;;;;;20.27;11.40;;;22.20;97.30;;;;;;4905384;29;20473;-91
2021/06/25 12:34:08;;;;;;;14.00;10.40;;;22.20;97.30;;;;;;4904843;29;20792;-91
2021/06/25 12:36:35;;;;;;;14.33;9.10;;;22.20;97.30;;;;;;4903545;29;20416;-91
2021/06/25 12:39:05;;;;;;;14.60;9.17;;;22.10;97.30;;;;;;4903785;29;20429;-91
2021/06/25 12:41:31;;;;;;;16.10;9.10;;;22.10;97.30;;;;;;4904359;29;20440;-92
2021/06/25 12:43:57;;;;;;;13.73;9.90;;;22.10;97.30;;;;;;4903771;29;20460;-91
2021/06/25 12:46:24;;;;;;;14.70;10.10;;;22.20;97.30;;;;;;4903033;29;20420;-91
2021/06/25 12:52:28;;;;;;;15.20;10.73;;;22.10;97.30;;;;;;4920950;29;20469;-92
2021/06/25 12:54:55;;;;;;;17.67;11.60;;;22.00;97.30;;;;;;4900737;29;20942;-92
2021/06/25 12:57:23;;;;;;;18.77;12.03;;;21.90;97.30;;;;;;4901421;29;20445;-88
2021/06/25 12:59:53;;;;;;;15.20;10.93;;;21.90;97.30;;;;;;4900409;29;20456;-88